Flight Track Log - Related Links

Times and Time Zones

All times are in EDT time to prevent confusion due to time zone crossing. See the N130RC flight status page for this flight to view local times or setup timezone preferences in your user account.

Time Position Orientation Groundspeed Altitude Reporting Facility
EDT Latitude Longitude Course Direction KTS MPH feet Rate Location/Type
Mon 10:26:37 AM 34.2139 -119.1178 293° West 100 115 600  Level Los Angeles Center
Mon 10:27:37 AM 34.2261 -119.1531 293° West 110 127 1,500 836 Climbing Los Angeles Center
Mon 10:28:39 AM 34.2367 -119.1911 289° West 118 136 2,300 635 Climbing Los Angeles Center
Mon 10:29:21 AM 34.2433 -119.2117 291° West 120 138 2,600 679 Climbing Los Angeles Center
Mon 10:29:32 AM 34.2461 -119.2244 285° West 123 142 2,900 871 Climbing Los Angeles Center
Mon 10:30:23 AM 34.2542 -119.2575 286° West 117 135 3,500 690 Climbing Los Angeles Center
Mon 10:31:25 AM 34.2769 -119.2842 316° Northwest 121 139 4,200 732 Climbing Los Angeles Center
Mon 10:32:26 AM 34.3122 -119.2975 343° North 127 146 5,000 732 Climbing Los Angeles Center
Mon 10:33:28 AM 34.3442 -119.3131 338° Northwest 127 146 5,700 677 Climbing Los Angeles Center
Mon 10:34:30 AM 34.3769 -119.3278 340° North 127 146 6,400 677 Climbing Los Angeles Center
Mon 10:35:32 AM 34.4100 -119.3447 337° Northwest 127 146 7,100 634 Climbing Los Angeles Center
Mon 10:36:33 AM 34.4450 -119.3644 335° Northwest 131 151 7,700 683 Climbing Los Angeles Center
Mon 10:37:35 AM 34.4536 -119.4175 281° West 129 148 8,500 726 Climbing Los Angeles Center
Mon 10:38:37 AM 34.4678 -119.4564 294° West 130 150 9,200 581 Climbing Los Angeles Center
Mon 10:39:39 AM 34.4831 -119.4983 294° West 131 151 9,700 439 Climbing Los Angeles Center
Mon 10:40:40 AM 34.5053 -119.5383 304° West 138 159 10,100 488 Climbing Los Angeles Center
Mon 10:41:42 AM 34.5542 -119.5531 346° North 170 196 10,700 581 Climbing Los Angeles Center
Mon 10:42:44 AM 34.6003 -119.5669 346° North 169 194 11,300 581 Climbing Los Angeles Center
Mon 10:43:46 AM 34.6472 -119.5836 344° North 170 196 11,900 488 Climbing Los Angeles Center
Mon 10:44:47 AM 34.6947 -119.6000 344° North 175 201 12,300 488 Climbing Los Angeles Center
Mon 10:45:49 AM 34.7514 -119.6239 341° North 176 203 12,900 581 Climbing Los Angeles Center
Mon 10:46:51 AM 34.7978 -119.6425 342° North 177 204 13,500 581 Climbing Los Angeles Center
Mon 10:47:53 AM 34.8453 -119.6611 342° North 177 204 14,100 532 Climbing Los Angeles Center
Mon 10:48:55 AM 34.8933 -119.6789 343° North 179 206 14,600 537 Climbing Los Angeles Center
Mon 10:49:56 AM 34.9408 -119.6983 341° North 179 206 15,200 537 Climbing Los Angeles Center
Mon 10:50:58 AM 34.9894 -119.7167 343° North 180 207 15,700 435 Climbing Los Angeles Center
Mon 10:52:00 AM 35.0378 -119.7358 342° North 180 207 16,100 194 Climbing Los Angeles Center
Mon 10:53:02 AM 35.1008 -119.7608 342° North 195 224 16,100 -49 Level Los Angeles Center
Mon 10:54:03 AM 35.1547 -119.7817 342° North 201 231 16,000  Descending Los Angeles Center
Mon 10:55:05 AM 35.2058 -119.8014 343° North 197 227 16,100 48 Climbing Los Angeles Center
Mon 10:56:07 AM 35.2575 -119.8219 342° North 196 226 16,100 -48 Level Los Angeles Center
Mon 10:57:09 AM 35.3081 -119.8422 342° North 195 224 16,000  Descending Los Angeles Center
Mon 10:58:11 AM 35.3589 -119.8619 342° North 194 223 16,100 48 Climbing Los Angeles Center
Mon 10:59:13 AM 35.4200 -119.8853 343° North 194 223 16,100 48 Level Los Angeles Center
Mon 11:00:15 AM 35.4681 -119.9050 342° North 188 216 16,200 48 Climbing Los Angeles Center
Mon 11:01:17 AM 35.5183 -119.9233 343° North 188 216 16,200  Level Los Angeles Center
Mon 11:02:18 AM 35.5681 -119.9444 341° North 187 215 16,200  Level Los Angeles Center
Mon 11:03:20 AM 35.6178 -119.9644 342° North 188 216 16,200  Level Los Angeles Center
Mon 11:04:23 AM 35.6786 -119.9881 343° North 189 217 16,200  Level Oakland Center
Mon 11:05:24 AM 35.7297 -120.0089 342° North 190 219 16,200  Level Oakland Center
Mon 11:06:25 AM 35.7811 -120.0303 341° North 191 220 16,200  Level Oakland Center
Mon 11:07:27 AM 35.8325 -120.0508 342° North 192 221 16,200  Level Oakland Center
Mon 11:08:28 AM 35.8842 -120.0725 341° North 193 222 16,200  Level Oakland Center
Mon 11:09:29 AM 35.9347 -120.0936 341° North 193 222 16,200  Level Oakland Center
Mon 11:10:30 AM 35.9869 -120.1161 341° North 194 223 16,200 -49 Level Oakland Center
Mon 11:11:32 AM 36.0394 -120.1356 343° North 195 224 16,100  Descending Oakland Center
Mon 11:12:33 AM 36.1011 -120.1617 341° North 195 224 16,200 49 Climbing Oakland Center
Mon 11:13:34 AM 36.1528 -120.1831 342° North 195 224 16,200  Level Oakland Center
Mon 11:14:36 AM 36.2050 -120.2042 342° North 196 226 16,200  Level Oakland Center
Mon 11:15:37 AM 36.2572 -120.2264 341° North 196 226 16,200 -49 Level Oakland Center
Mon 11:16:38 AM 36.3089 -120.2472 342° North 197 227 16,100 -49 Descending Oakland Center
Mon 11:17:39 AM 36.3597 -120.2697 340° North 195 224 16,100  Level Oakland Center
Mon 11:18:41 AM 36.4106 -120.2908 342° North 194 223 16,100  Level Oakland Center
Mon 11:19:42 AM 36.4603 -120.3111 342° North 192 221 16,100  Level Oakland Center
Mon 11:20:43 AM 36.5108 -120.3325 341° North 191 220 16,100  Level Oakland Center
Mon 11:21:44 AM 36.5706 -120.3569 342° North 190 219 16,100  Level Oakland Center
Mon 11:22:46 AM 36.6194 -120.3781 341° North 189 217 16,100  Level Oakland Center
Mon 11:23:47 AM 36.6689 -120.3989 341° North 189 217 16,100 -49 Level Oakland Center
Mon 11:24:48 AM 36.7183 -120.4194 342° North 188 216 16,000  Descending Oakland Center
Mon 11:25:50 AM 36.7672 -120.4408 341° North 188 216 16,100 49 Climbing Oakland Center
Mon 11:26:51 AM 36.8217 -120.4639 341° North 188 216 16,100  Level Oakland Center
Mon 11:27:52 AM 36.8708 -120.4836 342° North 188 216 16,100  Level Oakland Center
Mon 11:28:54 AM 36.9206 -120.5047 341° North 188 216 16,100  Level Oakland Center
Mon 11:29:55 AM 36.9717 -120.5253 342° North 189 217 16,100  Level Oakland Center
Mon 11:30:56 AM 37.0206 -120.5469 341° North 188 216 16,100  Level Oakland Center
Mon 11:31:58 AM 37.0686 -120.5681 341° North 185 213 16,100 -49 Level Oakland Center
Mon 11:32:59 AM 37.1172 -120.5897 340° North 185 213 16,000 -49 Descending Oakland Center
Mon 11:34:00 AM 37.1669 -120.6100 342° North 186 214 16,000  Level Oakland Center
Mon 11:35:02 AM 37.2161 -120.6311 341° North 186 214 16,000 50 Level Oakland Center
Mon 11:36:01 AM 37.2833 -120.6500 347° North 203 234 16,100 50 Climbing Northern Cal TRACON
Mon 11:37:03 AM 37.3167 -120.6833 322° Northwest 197 227 16,100  Level Northern Cal TRACON
Mon 11:38:07 AM 37.3833 -120.7000 349° North 192 221 16,100  Level Northern Cal TRACON
Mon 11:39:07 AM 37.4333 -120.7167 345° North 187 215 16,100  Level Northern Cal TRACON
Mon 11:40:04 AM 37.4667 -120.7333 338° Northwest 188 216 16,100  Level Northern Cal TRACON
Mon 11:41:01 AM 37.5333 -120.7667 338° Northwest 190 219 16,100  Level Northern Cal TRACON
Mon 11:42:01 AM 37.5667 -120.7833 338° Northwest 190 219 16,100 -50 Level Northern Cal TRACON
Mon 11:43:01 AM 37.6167 -120.8000 345° North 192 221 16,000  Descending Northern Cal TRACON
Mon 11:44:01 AM 37.6833 -120.8333 338° Northwest 190 219 16,100  Climbing Northern Cal TRACON
Mon 11:45:01 AM 37.7333 -120.8500 345° North 192 221 16,000  Descending Northern Cal TRACON
Mon 11:46:01 AM 37.7833 -120.8667 345° North 192 221 16,100 50 Climbing Northern Cal TRACON
Mon 11:47:01 AM 37.8333 -120.8833 345° North 191 220 16,100 -50 Level Northern Cal TRACON
Mon 11:48:01 AM 37.8833 -120.9000 345° North 191 220 16,000 -52 Descending Northern Cal TRACON
Mon 11:48:56 AM 37.9167 -120.9333 322° Northwest 192 221 16,000  Level Northern Cal TRACON
Mon 11:50:02 AM 37.9833 -120.9500 349° North 192 221 16,000  Level Northern Cal TRACON
Mon 11:50:56 AM 38.0167 -120.9667 339° North 193 222 16,000  Level Northern Cal TRACON
Mon 11:51:57 AM 38.0667 -120.9833 345° North 192 221 16,000  Level Northern Cal TRACON
Mon 11:52:56 AM 38.1167 -121.0000 345° North 189 217 16,000  Level Northern Cal TRACON
Mon 11:53:26 AM 38.1403 -121.0144 334° Northwest 189 217 16,000  Level Oakland Center
Mon 11:54:28 AM 38.1903 -121.0361 341° North 189 217 16,000 49 Level Oakland Center
Mon 11:55:29 AM 38.2489 -121.0594 343° North 187 215 16,100 49 Climbing Oakland Center
Mon 11:56:31 AM 38.2989 -121.0794 343° North 188 216 16,100  Level Oakland Center
Mon 11:57:32 AM 38.3483 -121.0997 342° North 188 216 16,100  Level Oakland Center
Mon 11:58:33 AM 38.3972 -121.1197 342° North 187 215 16,100  Level Oakland Center
Mon 11:59:35 AM 38.4453 -121.1397 342° North 185 213 16,100 -49 Level Oakland Center
Mon 12:00:36 PM 38.5000 -121.1619 342° North 185 213 16,000 -49 Descending Oakland Center
Mon 12:01:38 PM 38.5489 -121.1817 342° North 185 213 16,000 49 Level Oakland Center
Mon 12:02:39 PM 38.5981 -121.2025 342° North 185 213 16,100 49 Climbing Oakland Center
Mon 12:03:41 PM 38.6453 -121.2231 341° North 183 211 16,100  Level Oakland Center
Mon 12:04:42 PM 38.6953 -121.2433 342° North 183 211 16,100 -49 Level Oakland Center
Mon 12:05:44 PM 38.7428 -121.2633 342° North 181 208 16,000 -49 Descending Oakland Center
Mon 12:06:45 PM 38.7908 -121.2828 342° North 181 208 16,000 49 Level Oakland Center
Mon 12:07:47 PM 38.8383 -121.3025 342° North 181 208 16,100  Climbing Oakland Center
Mon 12:08:48 PM 38.8861 -121.3222 342° North 180 207 16,000 -49 Descending Oakland Center
Mon 12:09:50 PM 38.9442 -121.3469 342° North 181 208 16,000  Level Oakland Center
Mon 12:10:51 PM 38.9928 -121.3681 341° North 184 212 16,000  Level Oakland Center
Mon 12:12:02 PM 39.0500 -121.3833 348° North 172 198 16,000 46 Level Northern Cal TRACON
Mon 12:13:02 PM 39.1000 -121.4167 333° Northwest 170 196 16,100 34 Climbing Northern Cal TRACON
Mon 12:14:57 PM 39.1878 -121.4503 343° North 185 213 16,100 -34 Level Oakland Center
Mon 12:15:58 PM 39.2367 -121.4700 343° North 184 212 16,000 -49 Descending Oakland Center
Mon 12:17:00 PM 39.2850 -121.4911 341° North 184 212 16,000  Level Oakland Center
Mon 12:18:01 PM 39.3444 -121.5156 342° North 185 213 16,000  Level Oakland Center
Mon 12:19:03 PM 39.3922 -121.5361 342° North 184 212 16,000  Level Oakland Center
Mon 12:20:04 PM 39.4417 -121.5567 342° North 185 213 16,000  Level Oakland Center
Mon 12:21:06 PM 39.4939 -121.5767 344° North 186 214 16,000  Level Oakland Center
Mon 12:22:07 PM 39.5456 -121.5847 353° North 186 214 16,000  Level Oakland Center
Mon 12:23:09 PM 39.5969 -121.5967 350° North 187 215 16,000 48 Level Oakland Center
Mon 12:24:11 PM 39.6478 -121.6086 350° North 187 215 16,100  Climbing Oakland Center
Mon 12:25:12 PM 39.6992 -121.6181 352° North 187 215 16,000  Descending Oakland Center
Mon 12:26:13 PM 39.7506 -121.6297 350° North 187 215 16,100  Climbing Oakland Center
Mon 12:27:15 PM 39.8008 -121.6403 351° North 186 214 16,000  Descending Oakland Center
Mon 12:28:16 PM 39.8514 -121.6514 350° North 185 213 16,100  Climbing Oakland Center
Mon 12:29:18 PM 39.9108 -121.6633 351° North 184 212 16,000 -49 Descending Oakland Center
Mon 12:30:19 PM 39.9619 -121.6758 349° North 185 213 16,000  Level Oakland Center
Mon 12:31:20 PM 40.0111 -121.6864 351° North 183 211 16,000  Level Oakland Center
Mon 12:32:22 PM 40.0614 -121.6967 351° North 184 212 16,000  Level Oakland Center
Mon 12:33:23 PM 40.1106 -121.7067 351° North 182 209 16,000  Level Oakland Center
Mon 12:34:25 PM 40.1583 -121.7186 349° North 180 207 16,000  Level Oakland Center
Mon 12:35:26 PM 40.2067 -121.7294 350° North 179 206 16,000  Level Oakland Center
Mon 12:36:28 PM 40.2647 -121.7425 350° North 178 205 16,000  Level Oakland Center
Mon 12:37:29 PM 40.3136 -121.7539 350° North 178 205 16,000  Level Oakland Center
Mon 12:38:31 PM 40.3631 -121.7650 350° North 179 206 16,000  Level Oakland Center
Mon 12:39:32 PM 40.4119 -121.7753 351° North 179 206 16,000  Level Oakland Center
Mon 12:40:34 PM 40.4608 -121.7872 349° North 179 206 16,000  Level Oakland Center
Mon 12:41:35 PM 40.5100 -121.7989 350° North 180 207 16,000  Level Oakland Center
Mon 12:42:36 PM 40.5583 -121.8089 351° North 178 205 16,000  Level Oakland Center
Mon 12:43:38 PM 40.6175 -121.8222 350° North 179 206 16,000  Level Oakland Center
Mon 12:44:39 PM 40.6661 -121.8322 351° North 179 206 16,000  Level Oakland Center
Mon 12:45:41 PM 40.7150 -121.8439 350° North 178 205 16,000  Level Oakland Center
Mon 12:46:42 PM 40.7642 -121.8556 350° North 179 206 16,000  Level Oakland Center
Mon 12:47:43 PM 40.8133 -121.8664 351° North 179 206 16,000  Level Oakland Center
Mon 12:48:45 PM 40.8633 -121.8767 351° North 179 206 16,000  Level Oakland Center
Mon 12:49:46 PM 40.9131 -121.8883 350° North 180 207 16,000  Level Oakland Center
Mon 12:50:48 PM 40.9617 -121.9006 349° North 180 207 16,000  Level Oakland Center
Mon 12:51:49 PM 41.0214 -121.9144 350° North 180 207 16,000  Level Oakland Center
Mon 12:52:50 PM 41.0697 -121.9244 351° North 180 207 16,000  Level Oakland Center
Mon 12:53:52 PM 41.1186 -121.9364 350° North 180 207 16,000 55 Level Oakland Center
Mon 12:54:40 PM 41.1522 -121.9461 348° North 180 207 16,100 55 Climbing Seattle Center
Mon 12:55:41 PM 41.2014 -121.9561 351° North 180 207 16,100  Level Seattle Center
Mon 12:56:42 PM 41.2606 -121.9708 349° North 180 207 16,100  Level Seattle Center
Mon 12:57:44 PM 41.3106 -121.9811 351° North 180 207 16,100  Level Seattle Center
Mon 12:58:45 PM 41.3597 -121.9942 349° North 180 207 16,100  Level Seattle Center
Mon 12:59:46 PM 41.4094 -122.0042 351° North 180 207 16,100 -49 Level Seattle Center
Mon 01:00:47 PM 41.4592 -122.0153 350° North 180 207 16,000 -49 Descending Seattle Center
Mon 01:01:48 PM 41.5083 -122.0269 350° North 180 207 16,000 49 Level Seattle Center
Mon 01:02:49 PM 41.5575 -122.0383 350° North 180 207 16,100 49 Climbing Seattle Center
Mon 01:03:50 PM 41.6061 -122.0497 350° North 180 207 16,100  Level Seattle Center
Mon 01:04:51 PM 41.6556 -122.0603 351° North 180 207 16,100  Level Seattle Center
Mon 01:05:52 PM 41.7047 -122.0717 350° North 180 207 16,100  Level Seattle Center
Mon 01:06:53 PM 41.7547 -122.0831 350° North 180 207 16,100  Level Seattle Center
Mon 01:07:54 PM 41.8042 -122.0950 350° North 180 207 16,100  Level Seattle Center
Mon 01:08:55 PM 41.8544 -122.1061 351° North 181 208 16,100  Level Seattle Center
Mon 01:09:56 PM 41.9142 -122.1197 350° North 181 208 16,100  Level Seattle Center
Mon 01:10:57 PM 41.9636 -122.1314 350° North 180 207 16,100  Level Seattle Center
Mon 01:11:58 PM 42.0128 -122.1436 350° North 180 207 16,100  Level Seattle Center
Mon 01:12:59 PM 42.0614 -122.1536 351° North 180 207 16,100  Level Seattle Center
Mon 01:14:00 PM 42.1103 -122.1650 350° North 180 207 16,100  Level Seattle Center
Mon 01:15:01 PM 42.1592 -122.1769 350° North 180 207 16,100  Level Seattle Center
Mon 01:16:02 PM 42.2094 -122.1908 348° North 183 211 16,100  Level Seattle Center
Mon 01:17:03 PM 42.2575 -122.2011 351° North 177 204 16,100  Level Seattle Center
Mon 01:18:04 PM 42.3069 -122.2131 350° North 178 205 16,100  Level Seattle Center
Mon 01:19:05 PM 42.3564 -122.2250 350° North 179 206 16,100  Level Seattle Center
Mon 01:20:06 PM 42.4053 -122.2367 350° North 179 206 16,100  Level Seattle Center
Mon 01:21:07 PM 42.4533 -122.2506 348° North 179 206 16,100  Level Seattle Center
Mon 01:22:08 PM 42.5097 -122.2633 351° North 180 207 16,100  Level Seattle Center
Mon 01:23:09 PM 42.5592 -122.2739 351° North 178 205 16,100  Level Seattle Center
Mon 01:24:10 PM 42.6078 -122.2856 350° North 175 201 16,100  Level Seattle Center
Mon 01:25:11 PM 42.6600 -122.2983 350° North 178 205 16,100  Level Seattle Center
Mon 01:26:12 PM 42.7083 -122.3103 350° North 176 203 16,100  Level Seattle Center
Mon 01:27:13 PM 42.7553 -122.3214 350° North 172 198 16,100  Level Seattle Center
Mon 01:28:14 PM 42.8031 -122.3339 349° North 175 201 16,100  Level Seattle Center
Mon 01:29:15 PM 42.8503 -122.3450 350° North 171 197 16,100  Level Seattle Center
Mon 01:30:16 PM 42.9011 -122.3592 348° North 174 200 16,100  Level Seattle Center
Mon 01:31:17 PM 42.9475 -122.3703 350° North 172 198 16,100  Level Seattle Center
Mon 01:32:18 PM 42.9944 -122.3814 350° North 175 201 16,100  Level Seattle Center
Mon 01:33:19 PM 43.0422 -122.3931 350° North 177 204 16,100  Level Seattle Center
Mon 01:34:21 PM 43.0911 -122.4025 352° North 170 196 16,100  Level Seattle Center
Mon 01:35:22 PM 43.1381 -122.4131 351° North 170 196 16,100  Level Seattle Center
Mon 01:36:23 PM 43.1833 -122.4269 347° North 170 196 16,100  Level Seattle Center
Mon 01:37:24 PM 43.2292 -122.4375 350° North 169 194 16,100  Level Seattle Center
Mon 01:38:25 PM 43.2719 -122.4489 349° North 167 192 16,100  Level Seattle Center
Mon 01:39:26 PM 43.3194 -122.4569 353° North 168 193 16,100  Level Seattle Center
Mon 01:40:27 PM 43.3661 -122.4686 350° North 169 194 16,100  Level Seattle Center
Mon 01:41:28 PM 43.4122 -122.4794 350° North 168 193 16,100  Level Seattle Center
Mon 01:42:29 PM 43.4683 -122.4892 353° North 168 193 16,100  Level Seattle Center
Mon 01:43:30 PM 43.5139 -122.4983 352° North 168 193 16,100  Level Seattle Center
Mon 01:44:31 PM 43.5617 -122.5058 354° North 174 200 16,100  Level Seattle Center
Mon 01:45:33 PM 43.6083 -122.5153 352° North 173 199 16,100  Level Seattle Center
Mon 01:46:34 PM 43.6542 -122.5269 350° North 169 194 16,100  Level Seattle Center
Mon 01:47:35 PM 43.7006 -122.5364 352° North 169 194 16,100  Level Seattle Center
Mon 01:48:36 PM 43.7475 -122.5456 352° North 170 196 16,100  Level Seattle Center
Mon 01:49:37 PM 43.7928 -122.5564 350° North 167 192 16,100  Level Seattle Center
Mon 01:50:39 PM 43.8397 -122.5664 351° North 168 193 16,100  Level Seattle Center
Mon 01:51:40 PM 43.8853 -122.5769 351° North 168 193 16,100  Level Seattle Center
Mon 01:52:41 PM 43.9306 -122.5853 352° North 167 192 16,100  Level Seattle Center
Mon 01:53:42 PM 43.9861 -122.5981 351° North 167 192 16,100  Level Seattle Center
Mon 01:54:44 PM 44.0317 -122.6089 350° North 167 192 16,100  Level Seattle Center
Mon 01:55:45 PM 44.0772 -122.6186 351° North 167 192 16,100  Level Seattle Center
Mon 01:56:46 PM 44.1228 -122.6283 351° North 167 192 16,100 -244 Level Seattle Center
Mon 01:57:48 PM 44.1708 -122.6394 351° North 172 198 15,600 -439 Descending Seattle Center
Mon 01:58:49 PM 44.2231 -122.6503 352° North 187 215 15,200 -393 Descending Seattle Center
Mon 01:59:50 PM 44.2736 -122.6622 350° North 187 215 14,800 -443 Descending Seattle Center
Mon 02:00:51 PM 44.3239 -122.6728 351° North 186 214 14,300 -537 Descending Seattle Center
Mon 02:01:53 PM 44.3856 -122.6864 351° North 187 215 13,700 -585 Descending Seattle Center
Mon 02:02:54 PM 44.4369 -122.6978 351° North 187 215 13,100 -541 Descending Seattle Center
Mon 02:03:55 PM 44.4881 -122.7092 351° North 187 215 12,600 -488 Descending Seattle Center
Mon 02:04:57 PM 44.5389 -122.7211 350° North 186 214 12,100 -488 Descending Seattle Center
Mon 02:05:58 PM 44.5883 -122.7331 350° North 185 213 11,600 -492 Descending Seattle Center
Mon 02:06:59 PM 44.6356 -122.7428 352° North 181 208 11,100 -439 Descending Seattle Center
Mon 02:08:01 PM 44.6850 -122.7539 351° North 180 207 10,700 -439 Descending Seattle Center
Mon 02:09:02 PM 44.7342 -122.7653 351° North 180 207 10,200 -541 Descending Seattle Center
Mon 02:10:03 PM 44.7928 -122.7772 352° North 180 207 9,600 -488 Descending Seattle Center
Mon 02:11:05 PM 44.8403 -122.7883 351° North 179 206 9,200 -439 Descending Seattle Center
Mon 02:12:06 PM 44.8875 -122.7992 351° North 177 204 8,700 -539 Descending Seattle Center
Mon 02:12:34 PM 44.9125 -122.8061 349° North 173 199 8,400 -484 Descending Seattle Center
Mon 02:13:08 PM 44.9350 -122.8097 354° North 176 203 8,200 -411 Descending Seattle Center
Mon 02:13:47 PM 44.9669 -122.8178 350° North 175 201 7,900 -393 Descending Seattle Center
Mon 02:14:09 PM 44.9825 -122.8194 356° North 175 201 7,800 -492 Descending Seattle Center
Mon 02:14:48 PM 45.0186 -122.8275 351° North 173 199 7,400 -492 Descending Seattle Center
Mon 02:15:10 PM 45.0297 -122.8317 345° North 175 201 7,300 -492 Descending Seattle Center
Mon 02:15:49 PM 45.0650 -122.8428 347° North 174 200 6,900 -581 Descending Seattle Center
Mon 02:16:12 PM 45.0769 -122.8425 North 175 201 6,700 -600 Descending Seattle Center
Mon 02:16:49 PM 45.1128 -122.8542 347° North 173 199 6,300 -590 Descending Seattle Center
Mon 02:17:13 PM 45.1311 -122.8542 360° North 175 201 6,100 -492 Descending Seattle Center
Mon 02:17:50 PM 45.1600 -122.8628 348° North 171 197 5,800 -492 Descending Seattle Center
Mon 02:18:14 PM 45.1778 -122.8644 356° North 173 199 5,600 -492 Descending Seattle Center
Mon 02:18:51 PM 45.2053 -122.8722 349° North 170 196 5,300 -581 Descending Seattle Center
Mon 02:19:16 PM 45.2269 -122.8764 352° North 166 191 5,000 -627 Descending Seattle Center
Mon 02:19:58 PM 45.2558 -122.8764 360° North 153 176 4,600 -787 Descending Seattle Center
Mon 02:20:17 PM 45.2689 -122.8708 17° North 154 177 4,200 -1,222 Descending Seattle Center
Mon 02:20:52 PM 45.2939 -122.8611 15° North 162 186 3,500 -871 Descending Seattle Center
Mon 02:21:19 PM 45.3106 -122.8486 28° Northeast 158 182 3,300 -492 Descending Seattle Center
Mon 02:21:53 PM 45.3353 -122.8414 12° North 158 182 3,000 -492 Descending Seattle Center
Mon 02:22:20 PM 45.3519 -122.8356 14° North 143 165 2,800 -273 Descending Seattle Center
Mon 02:23:21 PM 45.3858 -122.8322 North 141 162 2,600 -197 Descending Seattle Center
Mon 02:25:00 PM 45.4416 -122.9134 314° West  Level FlightAware Approximate
Mon 02:32:00 PM 45.5333 -122.9500 North  Level FlightAware Approximate
Mon 02:33:00 PM 45.5408 -122.9502 North  Level Estimated
Mon 02:34:00 PM 45.5408 -122.9502 North  Level Estimated
Mon 02:35:00 PM 45.5408 -122.9502 179° South  Level Estimated
Mon 02:36:00 PM 45.5408 -122.9502 North  Level Estimated
Mon 02:37:00 PM 45.5408 -122.9502 179° South  Level Estimated

Login

Don't have an account? Register now (free) for customized features, flight alerts, and more!